sensor_id;sensor_type;location;lat;lon;timestamp;P1;durP1;ratioP1;P2;durP2;ratioP2
11123;SDS011;5616;42.692;23.312;2023-03-01T00:00:00;3.70;;;2.80;;
11123;SDS011;5616;42.692;23.312;2023-03-01T00:02:36;4.50;;;3.37;;
11123;SDS011;5616;42.692;23.312;2023-03-01T00:05:04;3.63;;;3.10;;
11123;SDS011;5616;42.692;23.312;2023-03-01T00:07:32;16.73;;;15.07;;
11123;SDS011;5616;42.692;23.312;2023-03-01T00:10:00;23.13;;;20.73;;
11123;SDS011;5616;42.692;23.312;2023-03-01T00:12:27;25.87;;;23.17;;
11123;SDS011;5616;42.692;23.312;2023-03-01T00:14:54;23.27;;;20.90;;
11123;SDS011;5616;42.692;23.312;2023-03-01T00:17:21;22.77;;;20.57;;
11123;SDS011;5616;42.692;23.312;2023-03-01T00:19:48;19.40;;;17.70;;
11123;SDS011;5616;42.692;23.312;2023-03-01T00:22:14;18.93;;;17.00;;
11123;SDS011;5616;42.692;23.312;2023-03-01T00:24:41;13.83;;;12.53;;
11123;SDS011;5616;42.692;23.312;2023-03-01T00:27:09;12.67;;;9.77;;
11123;SDS011;5616;42.692;23.312;2023-03-01T00:29:36;9.00;;;8.10;;
11123;SDS011;5616;42.692;23.312;2023-03-01T00:32:03;8.63;;;7.83;;
11123;SDS011;5616;42.692;23.312;2023-03-01T00:34:30;8.60;;;7.73;;
11123;SDS011;5616;42.692;23.312;2023-03-01T00:36:57;9.03;;;7.70;;
11123;SDS011;5616;42.692;23.312;2023-03-01T00:39:30;6.80;;;6.07;;
11123;SDS011;5616;42.692;23.312;2023-03-01T00:41:57;7.47;;;6.10;;
11123;SDS011;5616;42.692;23.312;2023-03-01T00:44:25;7.00;;;5.03;;
11123;SDS011;5616;42.692;23.312;2023-03-01T00:46:53;7.07;;;5.23;;
11123;SDS011;5616;42.692;23.312;2023-03-01T00:49:20;4.77;;;3.50;;
11123;SDS011;5616;42.692;23.312;2023-03-01T00:51:49;5.60;;;3.50;;
11123;SDS011;5616;42.692;23.312;2023-03-01T00:54:17;4.90;;;3.60;;
11123;SDS011;5616;42.692;23.312;2023-03-01T00:56:44;4.33;;;3.13;;
11123;SDS011;5616;42.692;23.312;2023-03-01T00:59:10;3.10;;;2.80;;
11123;SDS011;5616;42.692;23.312;2023-03-01T01:01:39;3.43;;;2.80;;
11123;SDS011;5616;42.692;23.312;2023-03-01T01:04:07;2.70;;;2.50;;
11123;SDS011;5616;42.692;23.312;2023-03-01T01:06:37;2.60;;;2.40;;
11123;SDS011;5616;42.692;23.312;2023-03-01T01:09:05;2.93;;;2.63;;
11123;SDS011;5616;42.692;23.312;2023-03-01T01:11:33;2.50;;;2.30;;
11123;SDS011;5616;42.692;23.312;2023-03-01T01:14:01;2.50;;;2.30;;
11123;SDS011;5616;42.692;23.312;2023-03-01T01:16:29;2.77;;;2.47;;
11123;SDS011;5616;42.692;23.312;2023-03-01T01:18:57;2.30;;;2.00;;
11123;SDS011;5616;42.692;23.312;2023-03-01T01:21:24;1.80;;;1.70;;
11123;SDS011;5616;42.692;23.312;2023-03-01T01:23:52;2.47;;;2.27;;
11123;SDS011;5616;42.692;23.312;2023-03-01T01:26:20;2.20;;;2.00;;
11123;SDS011;5616;42.692;23.312;2023-03-01T01:28:48;2.50;;;2.30;;
11123;SDS011;5616;42.692;23.312;2023-03-01T01:31:16;1.90;;;1.80;;
11123;SDS011;5616;42.692;23.312;2023-03-01T01:33:44;2.20;;;2.00;;
11123;SDS011;5616;42.692;23.312;2023-03-01T01:36:12;4.47;;;2.07;;
11123;SDS011;5616;42.692;23.312;2023-03-01T01:38:39;1.83;;;1.70;;
11123;SDS011;5616;42.692;23.312;2023-03-01T01:41:09;1.97;;;1.77;;
11123;SDS011;5616;42.692;23.312;2023-03-01T01:43:38;1.70;;;1.60;;
11123;SDS011;5616;42.692;23.312;2023-03-01T01:46:10;2.37;;;2.17;;
11123;SDS011;5616;42.692;23.312;2023-03-01T01:48:45;2.10;;;1.90;;
11123;SDS011;5616;42.692;23.312;2023-03-01T01:51:18;2.30;;;2.10;;
11123;SDS011;5616;42.692;23.312;2023-03-01T01:53:48;1.73;;;1.63;;
11123;SDS011;5616;42.692;23.312;2023-03-01T01:56:19;1.60;;;1.50;;
11123;SDS011;5616;42.692;23.312;2023-03-01T01:58:47;1.70;;;1.60;;
11123;SDS011;5616;42.692;23.312;2023-03-01T02:01:15;1.83;;;1.73;;
11123;SDS011;5616;42.692;23.312;2023-03-01T02:03:43;1.60;;;1.50;;
11123;SDS011;5616;42.692;23.312;2023-03-01T02:06:13;1.67;;;1.57;;
11123;SDS011;5616;42.692;23.312;2023-03-01T02:08:48;1.70;;;1.60;;
11123;SDS011;5616;42.692;23.312;2023-03-01T02:11:17;1.40;;;1.30;;
11123;SDS011;5616;42.692;23.312;2023-03-01T02:13:47;1.53;;;1.43;;
11123;SDS011;5616;42.692;23.312;2023-03-01T02:16:14;1.40;;;1.30;;
11123;SDS011;5616;42.692;23.312;2023-03-01T02:18:42;1.60;;;1.50;;
11123;SDS011;5616;42.692;23.312;2023-03-01T02:21:14;1.40;;;1.30;;
11123;SDS011;5616;42.692;23.312;2023-03-01T02:23:53;1.70;;;1.60;;
11123;SDS011;5616;42.692;23.312;2023-03-01T02:26:23;1.50;;;1.40;;
11123;SDS011;5616;42.692;23.312;2023-03-01T02:29:00;1.70;;;1.60;;
11123;SDS011;5616;42.692;23.312;2023-03-01T02:31:27;1.60;;;1.50;;
11123;SDS011;5616;42.692;23.312;2023-03-01T02:34:11;1.50;;;1.40;;
11123;SDS011;5616;42.692;23.312;2023-03-01T02:36:40;1.47;;;1.37;;
11123;SDS011;5616;42.692;23.312;2023-03-01T02:39:12;1.73;;;1.63;;
11123;SDS011;5616;42.692;23.312;2023-03-01T02:41:44;1.50;;;1.40;;
11123;SDS011;5616;42.692;23.312;2023-03-01T02:44:14;1.77;;;1.67;;
11123;SDS011;5616;42.692;23.312;2023-03-01T02:46:42;2.03;;;1.83;;
11123;SDS011;5616;42.692;23.312;2023-03-01T02:49:20;1.67;;;1.57;;
11123;SDS011;5616;42.692;23.312;2023-03-01T02:51:56;1.60;;;1.50;;
11123;SDS011;5616;42.692;23.312;2023-03-01T02:54:35;2.00;;;1.80;;
11123;SDS011;5616;42.692;23.312;2023-03-01T02:57:06;1.83;;;1.70;;
11123;SDS011;5616;42.692;23.312;2023-03-01T02:59:35;1.73;;;1.50;;
11123;SDS011;5616;42.692;23.312;2023-03-01T03:02:06;1.80;;;1.70;;
11123;SDS011;5616;42.692;23.312;2023-03-01T03:04:33;2.63;;;1.90;;
11123;SDS011;5616;42.692;23.312;2023-03-01T03:07:01;2.37;;;2.03;;
11123;SDS011;5616;42.692;23.312;2023-03-01T03:09:27;1.70;;;1.40;;
11123;SDS011;5616;42.692;23.312;2023-03-01T03:11:55;1.77;;;1.67;;
11123;SDS011;5616;42.692;23.312;2023-03-01T03:14:22;1.80;;;1.70;;
11123;SDS011;5616;42.692;23.312;2023-03-01T03:16:50;1.90;;;1.80;;
11123;SDS011;5616;42.692;23.312;2023-03-01T03:19:17;1.80;;;1.70;;
11123;SDS011;5616;42.692;23.312;2023-03-01T03:21:45;2.00;;;1.80;;
11123;SDS011;5616;42.692;23.312;2023-03-01T03:24:11;2.10;;;1.90;;
11123;SDS011;5616;42.692;23.312;2023-03-01T03:26:38;2.60;;;2.40;;
11123;SDS011;5616;42.692;23.312;2023-03-01T03:29:05;2.30;;;2.10;;
11123;SDS011;5616;42.692;23.312;2023-03-01T03:31:32;2.60;;;2.10;;
11123;SDS011;5616;42.692;23.312;2023-03-01T03:34:01;2.30;;;2.10;;
11123;SDS011;5616;42.692;23.312;2023-03-01T03:36:28;2.23;;;2.03;;
11123;SDS011;5616;42.692;23.312;2023-03-01T03:38:55;2.00;;;1.90;;
11123;SDS011;5616;42.692;23.312;2023-03-01T03:41:21;1.80;;;1.70;;
11123;SDS011;5616;42.692;23.312;2023-03-01T03:46:34;2.05;;;1.95;;
11123;SDS011;5616;42.692;23.312;2023-03-01T03:49:19;2.30;;;2.10;;
11123;SDS011;5616;42.692;23.312;2023-03-01T03:51:46;2.50;;;2.30;;
11123;SDS011;5616;42.692;23.312;2023-03-01T03:54:12;2.60;;;2.40;;
11123;SDS011;5616;42.692;23.312;2023-03-01T03:56:39;2.40;;;2.20;;
11123;SDS011;5616;42.692;23.312;2023-03-01T03:59:06;2.47;;;2.30;;
11123;SDS011;5616;42.692;23.312;2023-03-01T04:01:34;2.50;;;2.27;;
11123;SDS011;5616;42.692;23.312;2023-03-01T04:04:21;2.40;;;2.20;;
11123;SDS011;5616;42.692;23.312;2023-03-01T04:06:48;2.70;;;2.50;;
11123;SDS011;5616;42.692;23.312;2023-03-01T04:09:15;2.60;;;2.40;;
11123;SDS011;5616;42.692;23.312;2023-03-01T04:11:41;2.43;;;2.23;;
11123;SDS011;5616;42.692;23.312;2023-03-01T04:14:09;3.10;;;2.13;;
11123;SDS011;5616;42.692;23.312;2023-03-01T04:16:36;4.10;;;2.50;;
11123;SDS011;5616;42.692;23.312;2023-03-01T04:19:02;2.20;;;2.00;;
11123;SDS011;5616;42.692;23.312;2023-03-01T04:21:32;2.10;;;1.90;;
11123;SDS011;5616;42.692;23.312;2023-03-01T04:24:01;2.67;;;2.20;;
11123;SDS011;5616;42.692;23.312;2023-03-01T04:26:28;2.53;;;2.27;;
11123;SDS011;5616;42.692;23.312;2023-03-01T04:28:55;2.90;;;2.03;;
11123;SDS011;5616;42.692;23.312;2023-03-01T04:31:22;2.37;;;2.03;;
11123;SDS011;5616;42.692;23.312;2023-03-01T04:33:49;2.47;;;2.10;;
11123;SDS011;5616;42.692;23.312;2023-03-01T04:36:18;2.30;;;2.00;;
11123;SDS011;5616;42.692;23.312;2023-03-01T04:38:47;1.90;;;1.80;;
11123;SDS011;5616;42.692;23.312;2023-03-01T04:41:15;2.23;;;2.10;;
11123;SDS011;5616;42.692;23.312;2023-03-01T04:43:43;2.03;;;1.87;;
11123;SDS011;5616;42.692;23.312;2023-03-01T04:46:10;2.50;;;2.30;;
11123;SDS011;5616;42.692;23.312;2023-03-01T04:48:40;2.40;;;2.20;;
11123;SDS011;5616;42.692;23.312;2023-03-01T04:51:08;2.17;;;1.97;;
11123;SDS011;5616;42.692;23.312;2023-03-01T04:53:38;2.60;;;2.00;;
11123;SDS011;5616;42.692;23.312;2023-03-01T04:56:08;2.20;;;2.00;;
11123;SDS011;5616;42.692;23.312;2023-03-01T04:58:34;2.80;;;2.03;;
11123;SDS011;5616;42.692;23.312;2023-03-01T05:01:01;2.20;;;2.00;;
11123;SDS011;5616;42.692;23.312;2023-03-01T05:03:40;2.57;;;2.30;;
11123;SDS011;5616;42.692;23.312;2023-03-01T05:06:08;2.93;;;2.60;;
11123;SDS011;5616;42.692;23.312;2023-03-01T05:08:36;2.60;;;2.37;;
11123;SDS011;5616;42.692;23.312;2023-03-01T05:11:03;2.90;;;2.60;;
11123;SDS011;5616;42.692;23.312;2023-03-01T05:13:31;3.10;;;2.57;;
11123;SDS011;5616;42.692;23.312;2023-03-01T05:15:59;3.70;;;2.70;;
11123;SDS011;5616;42.692;23.312;2023-03-01T05:18:27;2.67;;;2.47;;
11123;SDS011;5616;42.692;23.312;2023-03-01T05:21:00;2.47;;;2.27;;
11123;SDS011;5616;42.692;23.312;2023-03-01T05:23:29;2.97;;;2.60;;
11123;SDS011;5616;42.692;23.312;2023-03-01T05:25:57;2.53;;;2.33;;
11123;SDS011;5616;42.692;23.312;2023-03-01T05:28:25;4.67;;;2.80;;
11123;SDS011;5616;42.692;23.312;2023-03-01T05:30:54;4.20;;;3.03;;
11123;SDS011;5616;42.692;23.312;2023-03-01T05:33:22;3.30;;;3.00;;
11123;SDS011;5616;42.692;23.312;2023-03-01T05:35:49;3.30;;;3.00;;
11123;SDS011;5616;42.692;23.312;2023-03-01T05:38:18;4.17;;;3.23;;
11123;SDS011;5616;42.692;23.312;2023-03-01T05:40:45;4.43;;;3.60;;
11123;SDS011;5616;42.692;23.312;2023-03-01T05:43:14;4.30;;;3.60;;
11123;SDS011;5616;42.692;23.312;2023-03-01T05:45:43;4.40;;;3.70;;
11123;SDS011;5616;42.692;23.312;2023-03-01T05:48:11;3.90;;;3.20;;
11123;SDS011;5616;42.692;23.312;2023-03-01T05:50:40;4.33;;;3.80;;
11123;SDS011;5616;42.692;23.312;2023-03-01T05:53:09;4.73;;;3.80;;
11123;SDS011;5616;42.692;23.312;2023-03-01T05:55:37;4.57;;;3.30;;
11123;SDS011;5616;42.692;23.312;2023-03-01T05:58:06;3.47;;;3.17;;
11123;SDS011;5616;42.692;23.312;2023-03-01T06:00:35;3.30;;;3.00;;
11123;SDS011;5616;42.692;23.312;2023-03-01T06:03:02;3.47;;;3.00;;
11123;SDS011;5616;42.692;23.312;2023-03-01T06:05:30;3.63;;;3.20;;
11123;SDS011;5616;42.692;23.312;2023-03-01T06:07:58;6.20;;;3.30;;
11123;SDS011;5616;42.692;23.312;2023-03-01T06:10:26;4.03;;;3.03;;
11123;SDS011;5616;42.692;23.312;2023-03-01T06:12:53;3.63;;;3.33;;
11123;SDS011;5616;42.692;23.312;2023-03-01T06:15:20;3.27;;;2.97;;
11123;SDS011;5616;42.692;23.312;2023-03-01T06:17:47;4.80;;;2.63;;
11123;SDS011;5616;42.692;23.312;2023-03-01T06:22:43;3.73;;;3.37;;
11123;SDS011;5616;42.692;23.312;2023-03-01T06:25:12;4.77;;;4.27;;
11123;SDS011;5616;42.692;23.312;2023-03-01T06:27:40;2.77;;;2.57;;
11123;SDS011;5616;42.692;23.312;2023-03-01T06:30:07;3.73;;;2.83;;
11123;SDS011;5616;42.692;23.312;2023-03-01T06:32:35;3.60;;;2.53;;
11123;SDS011;5616;42.692;23.312;2023-03-01T06:35:02;2.90;;;2.50;;
11123;SDS011;5616;42.692;23.312;2023-03-01T06:37:30;2.50;;;2.20;;
11123;SDS011;5616;42.692;23.312;2023-03-01T06:39:58;4.00;;;2.30;;
11123;SDS011;5616;42.692;23.312;2023-03-01T06:42:24;2.20;;;2.00;;
11123;SDS011;5616;42.692;23.312;2023-03-01T06:44:51;4.43;;;2.10;;
11123;SDS011;5616;42.692;23.312;2023-03-01T06:47:18;3.70;;;2.10;;
11123;SDS011;5616;42.692;23.312;2023-03-01T06:49:45;2.27;;;2.07;;
11123;SDS011;5616;42.692;23.312;2023-03-01T06:52:12;4.40;;;2.70;;
11123;SDS011;5616;42.692;23.312;2023-03-01T06:54:38;3.43;;;2.60;;
11123;SDS011;5616;42.692;23.312;2023-03-01T06:57:06;3.60;;;2.13;;
11123;SDS011;5616;42.692;23.312;2023-03-01T06:59:33;7.00;;;2.50;;
11123;SDS011;5616;42.692;23.312;2023-03-01T07:02:00;3.13;;;2.60;;
11123;SDS011;5616;42.692;23.312;2023-03-01T07:04:27;3.83;;;2.60;;
11123;SDS011;5616;42.692;23.312;2023-03-01T07:06:55;3.67;;;2.40;;
11123;SDS011;5616;42.692;23.312;2023-03-01T07:09:22;2.30;;;2.10;;
11123;SDS011;5616;42.692;23.312;2023-03-01T07:11:49;4.63;;;2.67;;
11123;SDS011;5616;42.692;23.312;2023-03-01T07:14:18;2.83;;;2.30;;
11123;SDS011;5616;42.692;23.312;2023-03-01T07:16:45;3.30;;;2.53;;
11123;SDS011;5616;42.692;23.312;2023-03-01T07:19:12;3.73;;;2.30;;
11123;SDS011;5616;42.692;23.312;2023-03-01T07:21:39;2.53;;;2.33;;
11123;SDS011;5616;42.692;23.312;2023-03-01T07:24:06;4.33;;;2.47;;
11123;SDS011;5616;42.692;23.312;2023-03-01T07:26:33;2.23;;;2.03;;
11123;SDS011;5616;42.692;23.312;2023-03-01T07:29:00;2.30;;;2.10;;
11123;SDS011;5616;42.692;23.312;2023-03-01T07:31:29;2.87;;;2.10;;
11123;SDS011;5616;42.692;23.312;2023-03-01T07:33:55;3.17;;;2.13;;
11123;SDS011;5616;42.692;23.312;2023-03-01T07:36:22;2.83;;;2.17;;
11123;SDS011;5616;42.692;23.312;2023-03-01T07:38:50;2.63;;;2.30;;
11123;SDS011;5616;42.692;23.312;2023-03-01T07:41:17;3.73;;;2.40;;
11123;SDS011;5616;42.692;23.312;2023-03-01T07:43:44;3.57;;;2.27;;
11123;SDS011;5616;42.692;23.312;2023-03-01T07:46:10;2.17;;;1.97;;
11123;SDS011;5616;42.692;23.312;2023-03-01T07:48:39;2.57;;;2.37;;
11123;SDS011;5616;42.692;23.312;2023-03-01T07:51:06;3.27;;;2.00;;
11123;SDS011;5616;42.692;23.312;2023-03-01T07:53:33;2.20;;;2.00;;
11123;SDS011;5616;42.692;23.312;2023-03-01T07:56:01;2.20;;;2.00;;
11123;SDS011;5616;42.692;23.312;2023-03-01T07:58:29;2.30;;;2.07;;
11123;SDS011;5616;42.692;23.312;2023-03-01T08:00:56;2.20;;;2.00;;
11123;SDS011;5616;42.692;23.312;2023-03-01T08:03:22;2.30;;;1.77;;
11123;SDS011;5616;42.692;23.312;2023-03-01T08:05:51;2.37;;;1.90;;
11123;SDS011;5616;42.692;23.312;2023-03-01T08:08:17;2.37;;;2.00;;
11123;SDS011;5616;42.692;23.312;2023-03-01T08:10:44;2.97;;;1.93;;
11123;SDS011;5616;42.692;23.312;2023-03-01T08:13:11;2.60;;;1.83;;
11123;SDS011;5616;42.692;23.312;2023-03-01T08:15:38;3.13;;;2.43;;
11123;SDS011;5616;42.692;23.312;2023-03-01T08:18:05;3.47;;;2.53;;
11123;SDS011;5616;42.692;23.312;2023-03-01T08:20:32;3.77;;;2.87;;
11123;SDS011;5616;42.692;23.312;2023-03-01T08:23:00;5.40;;;2.80;;
11123;SDS011;5616;42.692;23.312;2023-03-01T08:25:27;5.20;;;2.80;;
11123;SDS011;5616;42.692;23.312;2023-03-01T08:27:54;7.57;;;4.50;;
11123;SDS011;5616;42.692;23.312;2023-03-01T08:30:20;12.47;;;5.90;;
11123;SDS011;5616;42.692;23.312;2023-03-01T08:32:49;8.33;;;4.97;;
11123;SDS011;5616;42.692;23.312;2023-03-01T08:35:16;6.57;;;3.47;;
11123;SDS011;5616;42.692;23.312;2023-03-01T08:37:44;6.50;;;4.03;;
11123;SDS011;5616;42.692;23.312;2023-03-01T08:40:13;7.90;;;4.87;;
11123;SDS011;5616;42.692;23.312;2023-03-01T08:42:40;5.17;;;3.47;;
11123;SDS011;5616;42.692;23.312;2023-03-01T08:45:09;8.37;;;4.37;;
11123;SDS011;5616;42.692;23.312;2023-03-01T08:47:37;18.53;;;8.27;;
11123;SDS011;5616;42.692;23.312;2023-03-01T08:50:04;8.13;;;4.50;;
11123;SDS011;5616;42.692;23.312;2023-03-01T08:52:31;3.47;;;2.90;;
11123;SDS011;5616;42.692;23.312;2023-03-01T08:54:59;7.43;;;3.80;;
11123;SDS011;5616;42.692;23.312;2023-03-01T08:57:28;5.20;;;3.00;;
11123;SDS011;5616;42.692;23.312;2023-03-01T08:59:56;4.97;;;3.00;;
11123;SDS011;5616;42.692;23.312;2023-03-01T09:02:22;2.90;;;2.50;;
11123;SDS011;5616;42.692;23.312;2023-03-01T09:04:49;6.03;;;3.40;;
11123;SDS011;5616;42.692;23.312;2023-03-01T09:07:16;3.90;;;2.40;;
11123;SDS011;5616;42.692;23.312;2023-03-01T09:09:43;2.60;;;2.17;;
11123;SDS011;5616;42.692;23.312;2023-03-01T09:12:10;4.97;;;3.63;;
11123;SDS011;5616;42.692;23.312;2023-03-01T09:14:38;4.47;;;3.10;;
11123;SDS011;5616;42.692;23.312;2023-03-01T09:17:06;6.00;;;4.40;;
11123;SDS011;5616;42.692;23.312;2023-03-01T09:19:33;5.70;;;3.40;;
11123;SDS011;5616;42.692;23.312;2023-03-01T09:21:59;9.73;;;4.77;;
11123;SDS011;5616;42.692;23.312;2023-03-01T09:24:26;15.97;;;6.87;;
11123;SDS011;5616;42.692;23.312;2023-03-01T09:26:54;10.00;;;4.83;;
11123;SDS011;5616;42.692;23.312;2023-03-01T09:29:22;5.17;;;2.63;;
11123;SDS011;5616;42.692;23.312;2023-03-01T09:31:50;3.03;;;1.67;;
11123;SDS011;5616;42.692;23.312;2023-03-01T09:34:20;13.37;;;5.90;;
11123;SDS011;5616;42.692;23.312;2023-03-01T09:36:48;5.47;;;2.90;;
11123;SDS011;5616;42.692;23.312;2023-03-01T09:39:16;5.97;;;3.80;;
11123;SDS011;5616;42.692;23.312;2023-03-01T09:41:45;5.67;;;2.97;;
11123;SDS011;5616;42.692;23.312;2023-03-01T09:44:21;7.93;;;3.97;;
11123;SDS011;5616;42.692;23.312;2023-03-01T09:46:56;10.13;;;4.43;;
11123;SDS011;5616;42.692;23.312;2023-03-01T09:49:23;6.30;;;4.07;;
11123;SDS011;5616;42.692;23.312;2023-03-01T09:51:54;14.67;;;6.20;;
11123;SDS011;5616;42.692;23.312;2023-03-01T09:54:23;8.83;;;5.17;;
11123;SDS011;5616;42.692;23.312;2023-03-01T09:56:57;10.60;;;5.40;;
11123;SDS011;5616;42.692;23.312;2023-03-01T09:59:33;12.07;;;6.03;;
11123;SDS011;5616;42.692;23.312;2023-03-01T10:02:24;2.43;;;1.70;;
11123;SDS011;5616;42.692;23.312;2023-03-01T10:04:58;9.40;;;3.57;;
11123;SDS011;5616;42.692;23.312;2023-03-01T10:07:32;8.20;;;4.07;;
11123;SDS011;5616;42.692;23.312;2023-03-01T10:10:14;4.87;;;2.97;;
11123;SDS011;5616;42.692;23.312;2023-03-01T10:12:47;7.93;;;3.83;;
11123;SDS011;5616;42.692;23.312;2023-03-01T10:15:16;6.67;;;3.20;;
11123;SDS011;5616;42.692;23.312;2023-03-01T10:17:50;7.67;;;3.97;;
11123;SDS011;5616;42.692;23.312;2023-03-01T10:20:22;12.33;;;5.50;;
11123;SDS011;5616;42.692;23.312;2023-03-01T10:22:50;6.83;;;3.27;;
11123;SDS011;5616;42.692;23.312;2023-03-01T10:25:38;7.80;;;4.00;;
11123;SDS011;5616;42.692;23.312;2023-03-01T10:28:16;7.27;;;5.13;;
11123;SDS011;5616;42.692;23.312;2023-03-01T10:30:44;6.57;;;3.23;;
11123;SDS011;5616;42.692;23.312;2023-03-01T10:33:15;7.07;;;3.20;;
11123;SDS011;5616;42.692;23.312;2023-03-01T10:35:45;4.90;;;3.10;;
11123;SDS011;5616;42.692;23.312;2023-03-01T10:38:14;6.20;;;3.37;;
11123;SDS011;5616;42.692;23.312;2023-03-01T10:40:52;9.87;;;4.80;;
11123;SDS011;5616;42.692;23.312;2023-03-01T10:43:22;7.80;;;3.60;;
11123;SDS011;5616;42.692;23.312;2023-03-01T10:45:49;2.93;;;2.20;;
11123;SDS011;5616;42.692;23.312;2023-03-01T10:48:18;3.83;;;2.77;;
11123;SDS011;5616;42.692;23.312;2023-03-01T10:50:50;10.57;;;4.63;;
11123;SDS011;5616;42.692;23.312;2023-03-01T10:53:31;13.17;;;6.00;;
11123;SDS011;5616;42.692;23.312;2023-03-01T10:56:01;11.20;;;5.03;;
11123;SDS011;5616;42.692;23.312;2023-03-01T10:58:31;3.23;;;2.07;;
11123;SDS011;5616;42.692;23.312;2023-03-01T11:00:59;2.60;;;1.50;;
11123;SDS011;5616;42.692;23.312;2023-03-01T11:03:30;2.53;;;1.53;;
11123;SDS011;5616;42.692;23.312;2023-03-01T11:06:04;9.23;;;4.37;;
11123;SDS011;5616;42.692;23.312;2023-03-01T11:08:46;5.00;;;3.03;;
11123;SDS011;5616;42.692;23.312;2023-03-01T11:11:24;1.67;;;1.50;;
11123;SDS011;5616;42.692;23.312;2023-03-01T11:13:58;9.77;;;4.50;;
11123;SDS011;5616;42.692;23.312;2023-03-01T11:16:31;13.83;;;6.63;;
11123;SDS011;5616;42.692;23.312;2023-03-01T11:19:13;6.57;;;3.57;;
11123;SDS011;5616;42.692;23.312;2023-03-01T11:21:42;2.33;;;1.60;;
11123;SDS011;5616;42.692;23.312;2023-03-01T11:24:15;8.13;;;3.87;;
11123;SDS011;5616;42.692;23.312;2023-03-01T11:26:44;7.20;;;3.47;;
11123;SDS011;5616;42.692;23.312;2023-03-01T11:29:18;5.13;;;2.00;;
11123;SDS011;5616;42.692;23.312;2023-03-01T11:31:53;11.47;;;5.30;;
11123;SDS011;5616;42.692;23.312;2023-03-01T11:34:28;3.70;;;2.60;;
11123;SDS011;5616;42.692;23.312;2023-03-01T11:37:07;4.17;;;2.73;;
11123;SDS011;5616;42.692;23.312;2023-03-01T11:39:43;5.50;;;2.83;;
11123;SDS011;5616;42.692;23.312;2023-03-01T11:42:18;4.13;;;2.50;;
11123;SDS011;5616;42.692;23.312;2023-03-01T11:44:48;8.23;;;4.57;;
11123;SDS011;5616;42.692;23.312;2023-03-01T11:47:21;3.70;;;2.37;;
11123;SDS011;5616;42.692;23.312;2023-03-01T11:50:07;9.43;;;4.73;;
11123;SDS011;5616;42.692;23.312;2023-03-01T11:52:48;4.43;;;2.17;;
11123;SDS011;5616;42.692;23.312;2023-03-01T11:55:29;7.33;;;4.20;;
11123;SDS011;5616;42.692;23.312;2023-03-01T11:58:14;2.27;;;2.00;;
11123;SDS011;5616;42.692;23.312;2023-03-01T12:01:02;2.40;;;1.90;;
11123;SDS011;5616;42.692;23.312;2023-03-01T12:06:48;8.83;;;5.23;;
11123;SDS011;5616;42.692;23.312;2023-03-01T12:09:30;18.10;;;7.90;;
11123;SDS011;5616;42.692;23.312;2023-03-01T12:12:19;24.27;;;9.63;;
11123;SDS011;5616;42.692;23.312;2023-03-01T12:21:17;7.07;;;4.40;;
11123;SDS011;5616;42.692;23.312;2023-03-01T12:26:55;7.33;;;5.27;;
11123;SDS011;5616;42.692;23.312;2023-03-01T12:29:39;3.87;;;3.10;;
11123;SDS011;5616;42.692;23.312;2023-03-01T12:32:21;3.43;;;2.53;;
11123;SDS011;5616;42.692;23.312;2023-03-01T12:38:05;7.03;;;3.70;;
11123;SDS011;5616;42.692;23.312;2023-03-01T12:40:45;10.03;;;4.40;;
11123;SDS011;5616;42.692;23.312;2023-03-01T12:43:26;9.73;;;6.00;;
11123;SDS011;5616;42.692;23.312;2023-03-01T12:46:06;7.20;;;4.57;;
11123;SDS011;5616;42.692;23.312;2023-03-01T12:48:43;5.87;;;3.07;;
11123;SDS011;5616;42.692;23.312;2023-03-01T12:51:18;4.77;;;2.80;;
11123;SDS011;5616;42.692;23.312;2023-03-01T12:53:49;4.63;;;3.10;;
11123;SDS011;5616;42.692;23.312;2023-03-01T12:56:18;6.00;;;3.30;;
11123;SDS011;5616;42.692;23.312;2023-03-01T12:58:51;5.47;;;3.80;;
11123;SDS011;5616;42.692;23.312;2023-03-01T13:01:28;6.43;;;3.40;;
11123;SDS011;5616;42.692;23.312;2023-03-01T13:06:58;12.83;;;5.20;;
11123;SDS011;5616;42.692;23.312;2023-03-01T13:09:49;7.27;;;4.37;;
11123;SDS011;5616;42.692;23.312;2023-03-01T13:12:45;5.60;;;3.20;;
11123;SDS011;5616;42.692;23.312;2023-03-01T13:15:31;5.03;;;3.30;;
11123;SDS011;5616;42.692;23.312;2023-03-01T13:18:00;6.33;;;3.90;;
11123;SDS011;5616;42.692;23.312;2023-03-01T13:20:33;4.67;;;3.03;;
11123;SDS011;5616;42.692;23.312;2023-03-01T13:23:11;11.20;;;4.40;;
11123;SDS011;5616;42.692;23.312;2023-03-01T13:26:04;8.20;;;4.80;;
11123;SDS011;5616;42.692;23.312;2023-03-01T13:28:38;5.07;;;3.03;;
11123;SDS011;5616;42.692;23.312;2023-03-01T13:31:09;8.20;;;4.77;;
11123;SDS011;5616;42.692;23.312;2023-03-01T13:33:57;6.57;;;3.70;;
11123;SDS011;5616;42.692;23.312;2023-03-01T13:36:45;4.30;;;2.90;;
11123;SDS011;5616;42.692;23.312;2023-03-01T13:39:30;4.80;;;3.33;;
11123;SDS011;5616;42.692;23.312;2023-03-01T13:42:27;5.67;;;3.27;;
11123;SDS011;5616;42.692;23.312;2023-03-01T13:44:57;4.87;;;3.07;;
11123;SDS011;5616;42.692;23.312;2023-03-01T13:47:26;6.03;;;3.50;;
11123;SDS011;5616;42.692;23.312;2023-03-01T13:49:55;10.20;;;4.23;;
11123;SDS011;5616;42.692;23.312;2023-03-01T13:52:30;21.17;;;9.07;;
11123;SDS011;5616;42.692;23.312;2023-03-01T13:55:05;22.13;;;8.93;;
11123;SDS011;5616;42.692;23.312;2023-03-01T13:57:43;20.17;;;8.17;;
11123;SDS011;5616;42.692;23.312;2023-03-01T14:00:24;3.63;;;2.80;;
11123;SDS011;5616;42.692;23.312;2023-03-01T14:03:02;3.67;;;2.43;;
11123;SDS011;5616;42.692;23.312;2023-03-01T14:05:32;3.40;;;2.33;;
11123;SDS011;5616;42.692;23.312;2023-03-01T14:08:01;2.67;;;2.20;;
11123;SDS011;5616;42.692;23.312;2023-03-01T14:10:44;3.90;;;2.60;;
11123;SDS011;5616;42.692;23.312;2023-03-01T14:13:32;4.53;;;2.33;;
11123;SDS011;5616;42.692;23.312;2023-03-01T14:16:15;4.63;;;2.60;;
11123;SDS011;5616;42.692;23.312;2023-03-01T14:18:55;3.43;;;2.37;;
11123;SDS011;5616;42.692;23.312;2023-03-01T14:21:30;3.03;;;2.40;;
11123;SDS011;5616;42.692;23.312;2023-03-01T14:23:57;4.20;;;2.67;;
11123;SDS011;5616;42.692;23.312;2023-03-01T14:26:24;4.70;;;2.87;;
11123;SDS011;5616;42.692;23.312;2023-03-01T14:28:51;3.87;;;2.37;;
11123;SDS011;5616;42.692;23.312;2023-03-01T14:31:32;3.17;;;2.20;;
11123;SDS011;5616;42.692;23.312;2023-03-01T14:34:04;5.10;;;2.63;;
11123;SDS011;5616;42.692;23.312;2023-03-01T14:36:33;4.00;;;2.50;;
11123;SDS011;5616;42.692;23.312;2023-03-01T14:39:00;7.20;;;2.50;;
11123;SDS011;5616;42.692;23.312;2023-03-01T14:41:32;2.90;;;2.43;;
11123;SDS011;5616;42.692;23.312;2023-03-01T14:44:03;4.20;;;2.37;;
11123;SDS011;5616;42.692;23.312;2023-03-01T14:46:34;4.33;;;2.60;;
11123;SDS011;5616;42.692;23.312;2023-03-01T14:49:05;4.60;;;2.50;;
11123;SDS011;5616;42.692;23.312;2023-03-01T14:51:36;3.13;;;2.40;;
11123;SDS011;5616;42.692;23.312;2023-03-01T14:54:05;3.17;;;2.30;;
11123;SDS011;5616;42.692;23.312;2023-03-01T14:56:46;3.93;;;2.20;;
11123;SDS011;5616;42.692;23.312;2023-03-01T14:59:13;2.80;;;2.10;;
11123;SDS011;5616;42.692;23.312;2023-03-01T15:01:40;3.23;;;2.20;;
11123;SDS011;5616;42.692;23.312;2023-03-01T15:04:11;2.80;;;2.27;;
11123;SDS011;5616;42.692;23.312;2023-03-01T15:06:39;4.53;;;2.60;;
11123;SDS011;5616;42.692;23.312;2023-03-01T15:09:11;2.93;;;2.50;;
11123;SDS011;5616;42.692;23.312;2023-03-01T15:11:41;3.43;;;2.23;;
11123;SDS011;5616;42.692;23.312;2023-03-01T15:14:28;3.20;;;2.40;;
11123;SDS011;5616;42.692;23.312;2023-03-01T15:17:04;3.40;;;2.03;;
11123;SDS011;5616;42.692;23.312;2023-03-01T15:19:42;3.00;;;2.43;;
11123;SDS011;5616;42.692;23.312;2023-03-01T15:22:13;3.20;;;2.20;;
11123;SDS011;5616;42.692;23.312;2023-03-01T15:24:41;4.10;;;2.20;;
11123;SDS011;5616;42.692;23.312;2023-03-01T15:27:14;3.10;;;2.10;;
11123;SDS011;5616;42.692;23.312;2023-03-01T15:29:48;3.27;;;2.50;;